EZY221 EGGD-EGJJ
Flight info
| Callsign | EZY221 |
|---|---|
| Flight time | 0h 32m |
| Altitude | 23000 |
| Route | EXMOR N40 KLAKI L149 BIGNO |
| Aircraft | A320/M-SDE3FGHIRWY/LB1 |
Departure
| Time | 2026-05-07 20:10 |
|---|---|
| Airport | Bristol Airport (EGGD) |
Arrival
| Time | 2026-05-07 20:42 |
|---|---|
| Airport | Jersey Airport (EGJJ) |
| Time | Latitude | Longitude | Altitude | Speed | Heading |
|---|---|---|---|---|---|
| 2026-05-07 19:34 | 51.38523 | -2.71078 | 615 ft | 0 kts | 356° |
| 2026-05-07 20:02 | 51.38519 | -2.71078 | 612 ft | 3 kts | 358° |
| 2026-05-07 20:02 | 51.38493 | -2.71082 | 626 ft | 4 kts | 21° |
| 2026-05-07 20:03 | 51.38471 | -2.71103 | 623 ft | 4 kts | 50° |
| 2026-05-07 20:03 | 51.38459 | -2.71140 | 623 ft | 4 kts | 82° |
| 2026-05-07 20:03 | 51.38458 | -2.71149 | 617 ft | 1 kts | 86° |
| 2026-05-07 20:06 | 51.38458 | -2.71148 | 624 ft | 1 kts | 86° |
| 2026-05-07 20:06 | 51.38459 | -2.71113 | 618 ft | 6 kts | 87° |
| 2026-05-07 20:06 | 51.38463 | -2.71014 | 615 ft | 12 kts | 87° |
| 2026-05-07 20:07 | 51.38470 | -2.70853 | 625 ft | 16 kts | 86° |
| 2026-05-07 20:07 | 51.38454 | -2.70716 | 616 ft | 7 kts | 147° |
| 2026-05-07 20:07 | 51.38452 | -2.70714 | 618 ft | 0 kts | 150° |
| 2026-05-07 20:07 | 51.38449 | -2.70712 | 617 ft | 3 kts | 150° |
| 2026-05-07 20:08 | 51.38429 | -2.70716 | 619 ft | 2 kts | 221° |
| 2026-05-07 20:08 | 51.38409 | -2.70726 | 621 ft | 7 kts | 197° |
| 2026-05-07 20:08 | 51.38354 | -2.70754 | 621 ft | 5 kts | 197° |
| 2026-05-07 20:08 | 51.38325 | -2.70773 | 618 ft | 5 kts | 211° |
| 2026-05-07 20:09 | 51.38311 | -2.70818 | 611 ft | 0 kts | 259° |
| 2026-05-07 20:09 | 51.38302 | -2.70965 | 605 ft | 49 kts | 266° |
| 2026-05-07 20:10 | 51.38208 | -2.73486 | 817 ft | 154 kts | 266° |
| 2026-05-07 20:10 | 51.38115 | -2.75289 | 1351 ft | 171 kts | 263° |
| 2026-05-07 20:10 | 51.38014 | -2.77233 | 1989 ft | 179 kts | 263° |
| 2026-05-07 20:10 | 51.37928 | -2.79302 | 2360 ft | 195 kts | 264° |
| 2026-05-07 20:11 | 51.37838 | -2.81607 | 2542 ft | 221 kts | 264° |
| 2026-05-07 20:11 | 51.37740 | -2.84237 | 2780 ft | 252 kts | 265° |
| 2026-05-07 20:11 | 51.37504 | -2.87083 | 3486 ft | 260 kts | 248° |
| 2026-05-07 20:11 | 51.36476 | -2.89424 | 4410 ft | 259 kts | 220° |
| 2026-05-07 20:12 | 51.35090 | -2.91275 | 5368 ft | 261 kts | 218° |
| 2026-05-07 20:12 | 51.33681 | -2.93155 | 5996 ft | 267 kts | 219° |
| 2026-05-07 20:12 | 51.32294 | -2.95117 | 6035 ft | 265 kts | 221° |
| 2026-05-07 20:12 | 51.30955 | -2.97135 | 6033 ft | 264 kts | 223° |
| 2026-05-07 20:13 | 51.29654 | -2.99212 | 6025 ft | 265 kts | 227° |
| 2026-05-07 20:13 | 51.28652 | -3.01708 | 6157 ft | 272 kts | 242° |
| 2026-05-07 20:13 | 51.27808 | -3.04410 | 7095 ft | 272 kts | 242° |
| 2026-05-07 20:13 | 51.26962 | -3.07115 | 8007 ft | 273 kts | 242° |
| 2026-05-07 20:14 | 51.26107 | -3.09841 | 8932 ft | 275 kts | 242° |
| 2026-05-07 20:14 | 51.25248 | -3.12579 | 9846 ft | 277 kts | 242° |
| 2026-05-07 20:14 | 51.24369 | -3.15370 | 10408 ft | 291 kts | 242° |
| 2026-05-07 20:14 | 51.23431 | -3.18334 | 10657 ft | 314 kts | 242° |
| 2026-05-07 20:15 | 51.22428 | -3.21509 | 11166 ft | 325 kts | 242° |
| 2026-05-07 20:15 | 51.21395 | -3.24751 | 11874 ft | 330 kts | 240° |
| 2026-05-07 20:15 | 51.19997 | -3.27661 | 12583 ft | 333 kts | 222° |
| 2026-05-07 20:15 | 51.18050 | -3.29689 | 13281 ft | 338 kts | 203° |
| 2026-05-07 20:16 | 51.15752 | -3.30530 | 13951 ft | 344 kts | 183° |
| 2026-05-07 20:16 | 51.13366 | -3.30020 | 14571 ft | 351 kts | 163° |
| 2026-05-07 20:16 | 51.11201 | -3.28190 | 15201 ft | 357 kts | 146° |
| 2026-05-07 20:16 | 51.09123 | -3.25999 | 15841 ft | 358 kts | 155° |
| 2026-05-07 20:17 | 51.06775 | -3.24701 | 16486 ft | 358 kts | 170° |
| 2026-05-07 20:17 | 51.04302 | -3.24273 | 17137 ft | 359 kts | 181° |
| 2026-05-07 20:17 | 51.01797 | -3.24306 | 17771 ft | 361 kts | 181° |
| 2026-05-07 20:17 | 50.99275 | -3.24294 | 18395 ft | 364 kts | 181° |
| 2026-05-07 20:18 | 50.96731 | -3.24248 | 18938 ft | 367 kts | 180° |
| 2026-05-07 20:18 | 50.94173 | -3.24189 | 19479 ft | 369 kts | 180° |
| 2026-05-07 20:18 | 50.91592 | -3.24128 | 20012 ft | 372 kts | 180° |
| 2026-05-07 20:18 | 50.88996 | -3.24069 | 20538 ft | 374 kts | 180° |
| 2026-05-07 20:19 | 50.86378 | -3.24012 | 21062 ft | 377 kts | 180° |
| 2026-05-07 20:19 | 50.83747 | -3.23957 | 21574 ft | 380 kts | 181° |
| 2026-05-07 20:19 | 50.81095 | -3.23907 | 22076 ft | 383 kts | 180° |
| 2026-05-07 20:19 | 50.78422 | -3.23860 | 22568 ft | 385 kts | 181° |
| 2026-05-07 20:20 | 50.75735 | -3.23701 | 22953 ft | 389 kts | 175° |
| 2026-05-07 20:20 | 50.73061 | -3.23031 | 23027 ft | 386 kts | 172° |
| 2026-05-07 20:20 | 50.70424 | -3.22300 | 23032 ft | 384 kts | 171° |
| 2026-05-07 20:20 | 50.67794 | -3.21560 | 23033 ft | 384 kts | 171° |
| 2026-05-07 20:21 | 50.65197 | -3.20829 | 23028 ft | 370 kts | 172° |
| 2026-05-07 20:21 | 50.62718 | -3.20136 | 23032 ft | 354 kts | 172° |
| 2026-05-07 20:21 | 50.60328 | -3.19477 | 23033 ft | 351 kts | 172° |
| 2026-05-07 20:21 | 50.57859 | -3.18811 | 23035 ft | 369 kts | 172° |
| 2026-05-07 20:22 | 50.55280 | -3.18116 | 23028 ft | 381 kts | 172° |
| 2026-05-07 20:22 | 50.52656 | -3.17406 | 23037 ft | 384 kts | 172° |
| 2026-05-07 20:22 | 50.50022 | -3.16689 | 23038 ft | 385 kts | 172° |
| 2026-05-07 20:22 | 50.47385 | -3.15967 | 23037 ft | 385 kts | 172° |
| 2026-05-07 20:23 | 50.44746 | -3.15245 | 23034 ft | 385 kts | 172° |
| 2026-05-07 20:23 | 50.42109 | -3.14526 | 23037 ft | 385 kts | 172° |
| 2026-05-07 20:23 | 50.39472 | -3.13807 | 23029 ft | 385 kts | 171° |
| 2026-05-07 20:23 | 50.36887 | -3.12724 | 23031 ft | 387 kts | 161° |
| 2026-05-07 20:24 | 50.34440 | -3.10935 | 23038 ft | 389 kts | 154° |
| 2026-05-07 20:24 | 50.32056 | -3.08937 | 23036 ft | 389 kts | 154° |
| 2026-05-07 20:24 | 50.29664 | -3.06946 | 23031 ft | 389 kts | 154° |
| 2026-05-07 20:24 | 50.27275 | -3.04967 | 23021 ft | 389 kts | 154° |
| 2026-05-07 20:25 | 50.24883 | -3.02988 | 23022 ft | 389 kts | 154° |
| 2026-05-07 20:25 | 50.22523 | -3.01034 | 23025 ft | 389 kts | 154° |
| 2026-05-07 20:25 | 50.20102 | -2.99031 | 23015 ft | 389 kts | 154° |
| 2026-05-07 20:25 | 50.17750 | -2.97086 | 22614 ft | 387 kts | 154° |
| 2026-05-07 20:26 | 50.15360 | -2.95114 | 21970 ft | 387 kts | 154° |
| 2026-05-07 20:26 | 50.13001 | -2.93170 | 21526 ft | 381 kts | 154° |
| 2026-05-07 20:26 | 50.10672 | -2.91254 | 21051 ft | 376 kts | 155° |
| 2026-05-07 20:26 | 50.08398 | -2.89384 | 20595 ft | 364 kts | 155° |
| 2026-05-07 20:27 | 50.06165 | -2.87548 | 20130 ft | 361 kts | 155° |
| 2026-05-07 20:27 | 50.03958 | -2.85739 | 19672 ft | 354 kts | 155° |
| 2026-05-07 20:27 | 50.01804 | -2.83976 | 19222 ft | 348 kts | 155° |
| 2026-05-07 20:27 | 49.99609 | -2.82408 | 18760 ft | 345 kts | 163° |
| 2026-05-07 20:28 | 49.98087 | -2.81724 | 18452 ft | 343 kts | 168° |
| 2026-05-07 20:28 | 49.95779 | -2.80813 | 17973 ft | 342 kts | 168° |
| 2026-05-07 20:28 | 49.93481 | -2.79906 | 17513 ft | 339 kts | 168° |
| 2026-05-07 20:28 | 49.91205 | -2.79008 | 17082 ft | 336 kts | 168° |
| 2026-05-07 20:29 | 49.88943 | -2.78116 | 16645 ft | 334 kts | 168° |
| 2026-05-07 20:29 | 49.86698 | -2.77232 | 16211 ft | 332 kts | 168° |
| 2026-05-07 20:29 | 49.84466 | -2.76352 | 15784 ft | 330 kts | 167° |
| 2026-05-07 20:29 | 49.82243 | -2.75477 | 15359 ft | 329 kts | 168° |
| 2026-05-07 20:30 | 49.80028 | -2.74606 | 14937 ft | 328 kts | 167° |
| 2026-05-07 20:30 | 49.77822 | -2.73737 | 14507 ft | 327 kts | 167° |
| 2026-05-07 20:30 | 49.75626 | -2.72867 | 14081 ft | 326 kts | 167° |
| 2026-05-07 20:30 | 49.73433 | -2.71998 | 13627 ft | 325 kts | 167° |
| 2026-05-07 20:31 | 49.71247 | -2.71138 | 13179 ft | 323 kts | 167° |
| 2026-05-07 20:31 | 49.69078 | -2.70285 | 12750 ft | 321 kts | 167° |
| 2026-05-07 20:31 | 49.66924 | -2.69441 | 12313 ft | 318 kts | 167° |
| 2026-05-07 20:31 | 49.64786 | -2.68604 | 11879 ft | 314 kts | 167° |
| 2026-05-07 20:32 | 49.62696 | -2.67781 | 11456 ft | 307 kts | 167° |
| 2026-05-07 20:32 | 49.60633 | -2.66966 | 11031 ft | 306 kts | 167° |
| 2026-05-07 20:32 | 49.58573 | -2.66159 | 10604 ft | 305 kts | 167° |
| 2026-05-07 20:32 | 49.56524 | -2.65362 | 10266 ft | 299 kts | 167° |
| 2026-05-07 20:33 | 49.54577 | -2.64608 | 10002 ft | 281 kts | 167° |
| 2026-05-07 20:33 | 49.52710 | -2.63884 | 9637 ft | 273 kts | 167° |
| 2026-05-07 20:33 | 49.50869 | -2.63169 | 9503 ft | 272 kts | 167° |
| 2026-05-07 20:33 | 49.49032 | -2.62455 | 9242 ft | 273 kts | 167° |
| 2026-05-07 20:34 | 49.47190 | -2.61739 | 8856 ft | 271 kts | 167° |
| 2026-05-07 20:34 | 49.45362 | -2.61025 | 8365 ft | 270 kts | 167° |
| 2026-05-07 20:34 | 49.43582 | -2.60240 | 7808 ft | 264 kts | 160° |
| 2026-05-07 20:34 | 49.41922 | -2.59010 | 7408 ft | 264 kts | 155° |
| 2026-05-07 20:35 | 49.40288 | -2.57754 | 7123 ft | 258 kts | 155° |
| 2026-05-07 20:35 | 49.38740 | -2.56568 | 6999 ft | 241 kts | 155° |
| 2026-05-07 20:35 | 49.37268 | -2.55442 | 6852 ft | 232 kts | 155° |
| 2026-05-07 20:35 | 49.35839 | -2.54351 | 6581 ft | 228 kts | 155° |
| 2026-05-07 20:36 | 49.34420 | -2.53270 | 6242 ft | 227 kts | 155° |
| 2026-05-07 20:36 | 49.32968 | -2.52164 | 5597 ft | 239 kts | 155° |
| 2026-05-07 20:36 | 49.31488 | -2.51040 | 5363 ft | 232 kts | 155° |
| 2026-05-07 20:36 | 49.30072 | -2.49962 | 5213 ft | 223 kts | 155° |
| 2026-05-07 20:37 | 49.28677 | -2.48902 | 4732 ft | 228 kts | 156° |
| 2026-05-07 20:37 | 49.27259 | -2.47827 | 4260 ft | 225 kts | 155° |
| 2026-05-07 20:37 | 49.25872 | -2.46774 | 3801 ft | 220 kts | 155° |
| 2026-05-07 20:37 | 49.24509 | -2.45740 | 3340 ft | 217 kts | 155° |
| 2026-05-07 20:38 | 49.23139 | -2.44702 | 2889 ft | 222 kts | 155° |
| 2026-05-07 20:38 | 49.21761 | -2.43658 | 2428 ft | 220 kts | 154° |
| 2026-05-07 20:38 | 49.20527 | -2.42333 | 2036 ft | 214 kts | 135° |
| 2026-05-07 20:38 | 49.19724 | -2.40542 | 1997 ft | 196 kts | 117° |
| 2026-05-07 20:39 | 49.19344 | -2.38563 | 2006 ft | 194 kts | 100° |
| 2026-05-07 20:39 | 49.19364 | -2.36497 | 2008 ft | 196 kts | 86° |
| 2026-05-07 20:39 | 49.19540 | -2.34447 | 1995 ft | 194 kts | 86° |
| 2026-05-07 20:39 | 49.19713 | -2.32408 | 1829 ft | 193 kts | 86° |
| 2026-05-07 20:40 | 49.19881 | -2.30440 | 1612 ft | 180 kts | 86° |
| 2026-05-07 20:40 | 49.20037 | -2.28603 | 1378 ft | 168 kts | 86° |
| 2026-05-07 20:40 | 49.20178 | -2.26941 | 1157 ft | 148 kts | 85° |
| 2026-05-07 20:40 | 49.20303 | -2.25442 | 948 ft | 137 kts | 85° |
| 2026-05-07 20:41 | 49.20421 | -2.24027 | 747 ft | 132 kts | 84° |
| 2026-05-07 20:41 | 49.20531 | -2.22641 | 593 ft | 131 kts | 83° |
| 2026-05-07 20:41 | 49.20655 | -2.21246 | 378 ft | 133 kts | 82° |
| 2026-05-07 20:41 | 49.20766 | -2.19874 | 285 ft | 119 kts | 83° |
| 2026-05-07 20:42 | 49.20838 | -2.19016 | 287 ft | 54 kts | 82° |
| 2026-05-07 20:42 | 49.20876 | -2.18571 | 280 ft | 32 kts | 78° |
| 2026-05-07 20:42 | 49.20823 | -2.18379 | 279 ft | 18 kts | 175° |
| 2026-05-07 20:42 | 49.20781 | -2.18402 | 282 ft | 0 kts | 212° |
| 2026-05-07 20:43 | 49.20780 | -2.18402 | 282 ft | 0 kts | 212° |
| 2026-05-07 20:43 | 49.20776 | -2.18407 | 281 ft | 1 kts | 214° |
| 2026-05-07 20:43 | 49.20767 | -2.18417 | 282 ft | 0 kts | 215° |
| 2026-05-07 20:43 | 49.20746 | -2.18444 | 282 ft | 4 kts | 230° |
| 2026-05-07 20:44 | 49.20735 | -2.18488 | 282 ft | 4 kts | 256° |
| 2026-05-07 20:44 | 49.20727 | -2.18569 | 282 ft | 17 kts | 264° |
| 2026-05-07 20:44 | 49.20712 | -2.18765 | 282 ft | 17 kts | 262° |
| 2026-05-07 20:44 | 49.20699 | -2.18925 | 283 ft | 13 kts | 262° |
| 2026-05-07 20:45 | 49.20688 | -2.19049 | 283 ft | 10 kts | 262° |
| 2026-05-07 20:45 | 49.20680 | -2.19139 | 282 ft | 8 kts | 262° |
| 2026-05-07 20:45 | 49.20684 | -2.19229 | 280 ft | 7 kts | 281° |
| 2026-05-07 20:45 | 49.20692 | -2.19280 | 283 ft | 3 kts | 284° |
| 2026-05-07 20:46 | 49.20708 | -2.19390 | 281 ft | 15 kts | 276° |
| 2026-05-07 20:46 | 49.20699 | -2.19530 | 280 ft | 12 kts | 258° |
| 2026-05-07 20:46 | 49.20675 | -2.19632 | 280 ft | 9 kts | 233° |
| 2026-05-07 20:46 | 49.20633 | -2.19677 | 280 ft | 6 kts | 217° |
| 2026-05-07 20:47 | 49.20619 | -2.19717 | 280 ft | 3 kts | 252° |
| 2026-05-07 20:47 | 49.20613 | -2.19740 | 281 ft | 2 kts | 245° |
| 2026-05-07 20:47 | 49.20590 | -2.19758 | 280 ft | 3 kts | 188° |
| 2026-05-07 20:47 | 49.20570 | -2.19755 | 280 ft | 3 kts | 172° |
| 2026-05-07 20:48 | 49.20554 | -2.19752 | 280 ft | 3 kts | 173° |
| 2026-05-07 20:48 | 49.20551 | -2.19752 | 280 ft | 0 kts | 173° |